Time;durP1;ratioP1;P1;durP2;ratioP2;P2;SDS_P1;SDS_P2;PMS_P1;PMS_P2;Temp;Humidity;BMP_temperature;BMP_pressure;BME280_temperature;BME280_humidity;BME280_pressure;Samples;Min_cycle;Max_cycle;Signal;HPM_P1;HPM_P2
2021/04/20 00:01:53;;;;;;;39.13;24.05;;;;;;;7.50;78.18;102081.28;5021764;28;20514;-78
2021/04/20 00:04:19;;;;;;;35.70;25.35;;;;;;;7.51;78.68;102064.81;5001925;28;20464;-77
2021/04/20 00:06:45;;;;;;;37.05;24.77;;;;;;;7.38;78.44;102064.53;4997073;28;20050;-77
2021/04/20 00:09:10;;;;;;;32.90;23.00;;;;;;;7.37;77.79;102052.50;4988833;28;20038;-78
2021/04/20 00:11:37;;;;;;;32.47;23.13;;;;;;;7.46;77.83;102062.44;5004411;28;20038;-77
2021/04/20 00:14:04;;;;;;;34.13;24.35;;;;;;;7.41;77.69;102064.41;4999606;28;20050;-77
2021/04/20 00:16:30;;;;;;;34.35;23.77;;;;;;;7.43;77.90;102056.56;5003434;28;20041;-77
2021/04/20 00:18:56;;;;;;;34.90;23.75;;;;;;;7.39;78.13;102060.19;5004413;28;20038;-77
2021/04/20 00:21:21;;;;;;;38.03;23.88;;;;;;;7.35;78.52;102056.03;5000625;28;20091;-77
2021/04/20 00:23:47;;;;;;;38.05;24.58;;;;;;;7.33;78.47;102056.09;4999860;28;20038;-78
2021/04/20 00:26:12;;;;;;;34.15;23.73;;;;;;;7.24;78.57;102038.41;5023555;28;20507;-77
2021/04/20 00:28:38;;;;;;;36.47;23.58;;;;;;;7.24;78.79;102039.25;4993761;28;20042;-77
2021/04/20 00:31:04;;;;;;;34.30;24.40;;;;;;;7.22;78.42;102048.00;4983888;28;20522;-78
2021/04/20 00:33:29;;;;;;;35.80;23.55;;;;;;;7.17;79.09;102037.81;4998921;28;20044;-78
2021/04/20 00:35:55;;;;;;;35.90;24.17;;;;;;;7.08;78.80;102040.81;4986323;28;20040;-77
2021/04/20 00:38:20;;;;;;;39.88;24.75;;;;;;;7.07;79.09;102033.13;5002430;28;20042;-78
2021/04/20 00:40:46;;;;;;;34.65;23.63;;;;;;;6.69;78.87;101976.06;4984144;28;20034;-78
2021/04/20 00:43:12;;;;;;;33.75;21.73;;;;;;;7.03;78.52;102031.56;4991872;28;20133;-78
2021/04/20 00:45:39;;;;;;;34.60;23.10;;;;;;;7.08;79.02;102037.38;4999868;28;20061;-77
2021/04/20 00:48:06;;;;;;;34.58;23.77;;;;;;;7.06;79.70;102032.28;4988533;28;20734;-78
2021/04/20 00:50:36;;;;;;;37.28;24.63;;;;;;;7.01;79.24;102025.63;5001421;28;20892;-77
2021/04/20 00:53:02;;;;;;;36.72;24.95;;;;;;;7.08;79.24;102029.63;4987000;28;20466;-77
2021/04/20 00:55:30;;;;;;;32.15;22.60;;;;;;;7.03;79.55;102029.00;4998245;28;20038;-77
2021/04/20 00:57:56;;;;;;;36.25;23.63;;;;;;;6.90;79.19;102021.75;5004678;28;20034;-77
2021/04/20 01:00:24;;;;;;;35.30;24.88;;;;;;;6.82;80.08;102020.38;5002742;28;20088;-77
2021/04/20 01:02:50;;;;;;;34.25;24.58;;;;;;;6.80;79.22;102025.63;5000831;28;20053;-77
2021/04/20 01:05:27;;;;;;;32.33;21.90;;;;;;;6.81;79.08;102024.72;4996194;28;20145;-77
2021/04/20 01:07:58;;;;;;;35.83;23.77;;;;;;;6.80;79.43;102028.22;4997458;28;20041;-77
2021/04/20 01:10:25;;;;;;;33.80;22.92;;;;;;;6.73;80.85;102031.13;4996764;28;20404;-77
2021/04/20 01:12:51;;;;;;;35.47;23.90;;;;;;;6.69;80.79;102032.19;4996667;28;20050;-77
2021/04/20 01:15:17;;;;;;;36.88;24.40;;;;;;;6.68;80.04;102022.75;4998748;28;20048;-77
2021/04/20 01:17:42;;;;;;;35.45;23.13;;;;;;;6.68;79.75;102025.31;5003623;28;20053;-78
2021/04/20 01:20:10;;;;;;;35.40;24.15;;;;;;;6.77;80.15;102033.53;4980195;28;20058;-78
2021/04/20 01:22:40;;;;;;;33.53;23.45;;;;;;;6.80;79.83;102020.44;4997609;28;20038;-77
2021/04/20 01:25:07;;;;;;;36.97;24.83;;;;;;;6.85;80.40;102017.69;5002701;28;20069;-77
2021/04/20 01:27:34;;;;;;;39.95;25.13;;;;;;;6.93;80.05;102031.97;4999776;28;20081;-78
2021/04/20 01:30:00;;;;;;;34.50;24.17;;;;;;;6.94;80.42;102032.81;5004510;28;20072;-77
2021/04/20 01:32:26;;;;;;;34.58;23.65;;;;;;;6.73;79.99;101987.13;5003116;28;20065;-78
2021/04/20 01:34:54;;;;;;;36.17;24.52;;;;;;;7.00;80.67;102022.16;5001231;28;20137;-78
2021/04/20 01:37:21;;;;;;;36.80;24.48;;;;;;;7.06;79.97;102024.50;4999079;28;20160;-78
2021/04/20 01:39:48;;;;;;;35.67;25.25;;;;;;;7.07;80.52;102017.56;5000771;28;20066;-78
2021/04/20 01:42:14;;;;;;;39.80;25.10;;;;;;;7.06;80.74;102015.91;4982066;28;20034;-78
2021/04/20 01:44:40;;;;;;;38.40;26.60;;;;;;;6.95;80.95;102006.00;4996408;28;20129;-78
2021/04/20 01:47:07;;;;;;;36.35;25.05;;;;;;;6.86;81.33;101994.31;5003462;28;20046;-77
2021/04/20 01:49:33;;;;;;;40.05;26.98;;;;;;;6.94;80.70;101999.13;4982364;28;20057;-78
2021/04/20 01:51:58;;;;;;;38.33;27.13;;;;;;;6.97;81.29;102007.59;5002621;28;20038;-78
2021/04/20 01:54:24;;;;;;;39.10;27.02;;;;;;;6.97;80.99;102012.78;5003992;28;20049;-78
2021/04/20 01:56:52;;;;;;;41.70;27.10;;;;;;;7.00;80.75;101998.84;4982687;28;20152;-78
2021/04/20 01:59:19;;;;;;;41.28;28.30;;;;;;;7.01;81.29;101997.13;4999094;28;20147;-78
2021/04/20 02:01:46;;;;;;;40.65;27.92;;;;;;;6.97;81.57;101993.81;4995486;28;20767;-78
2021/04/20 02:04:11;;;;;;;42.38;25.77;;;;;;;6.95;81.36;101996.47;5002195;28;20042;-78
2021/04/20 02:06:37;;;;;;;40.63;26.63;;;;;;;6.96;81.09;102005.09;4996339;28;20034;-78
2021/04/20 02:09:05;;;;;;;41.15;27.10;;;;;;;6.85;81.11;101982.28;5000316;28;20423;-78
2021/04/20 02:11:31;;;;;;;40.72;27.63;;;;;;;6.97;81.27;101999.00;4999173;28;20042;-78
2021/04/20 02:14:01;;;;;;;44.60;28.25;;;;;;;6.91;80.94;101986.34;5000126;28;20519;-78
2021/04/20 02:16:28;;;;;;;43.75;28.27;;;;;;;6.88;81.92;101994.25;5000652;28;20042;-78
2021/04/20 02:18:57;;;;;;;44.13;27.58;;;;;;;6.92;82.02;101996.63;4996892;28;20438;-78
2021/04/20 02:21:23;;;;;;;43.92;29.20;;;;;;;6.84;81.72;101987.53;4981233;28;20052;-78
2021/04/20 02:23:49;;;;;;;43.75;29.50;;;;;;;6.83;81.56;101997.03;4994238;28;20033;-78
2021/04/20 02:26:25;;;;;;;43.05;28.58;;;;;;;6.90;81.89;102001.03;5014398;28;20107;-78
2021/04/20 02:28:50;;;;;;;46.63;31.15;;;;;;;6.84;82.23;101993.53;4991792;28;20042;-78
2021/04/20 02:31:16;;;;;;;43.50;29.20;;;;;;;6.87;81.96;101995.16;5001381;28;20561;-78
2021/04/20 02:33:43;;;;;;;46.13;30.20;;;;;;;6.78;82.86;101996.38;4998135;28;20048;-78
2021/04/20 02:36:09;;;;;;;41.97;28.80;;;;;;;6.67;82.11;101980.47;4999189;28;20424;-78
2021/04/20 02:38:35;;;;;;;45.03;30.13;;;;;;;6.76;82.06;101993.00;4997360;28;20042;-78
2021/04/20 02:41:03;;;;;;;46.40;29.65;;;;;;;6.75;83.07;102001.69;5002553;28;20037;-78
2021/04/20 02:43:29;;;;;;;46.50;29.85;;;;;;;6.77;82.27;102001.63;4997930;28;20380;-78
2021/04/20 02:45:58;;;;;;;41.83;29.60;;;;;;;6.74;82.35;101988.81;4995888;28;20034;-78
2021/04/20 02:48:25;;;;;;;44.30;29.65;;;;;;;6.82;82.41;101991.91;4996020;28;20038;-78
2021/04/20 02:50:53;;;;;;;49.58;28.98;;;;;;;6.81;82.69;101982.44;4995355;28;20038;-78
2021/04/20 02:53:19;;;;;;;47.28;29.60;;;;;;;6.85;82.69;101986.63;4996581;28;20439;-78
2021/04/20 02:55:45;;;;;;;42.78;28.73;;;;;;;6.96;82.35;101994.72;5001026;28;20058;-78
2021/04/20 02:58:17;;;;;;;45.42;29.55;;;;;;;6.97;82.21;101986.03;4997306;28;20088;-78
2021/04/20 03:00:45;;;;;;;43.03;27.63;;;;;;;7.05;82.75;101983.97;5002579;28;20030;-78
2021/04/20 03:03:14;;;;;;;46.10;29.40;;;;;;;7.04;82.90;101982.28;4998881;28;20042;-78
2021/04/20 03:05:40;;;;;;;39.47;27.75;;;;;;;7.08;82.35;101981.25;4995968;28;20074;-78
2021/04/20 03:08:07;;;;;;;43.45;29.55;;;;;;;7.09;82.15;101988.09;4999977;28;20541;-78
2021/04/20 03:10:35;;;;;;;47.30;28.92;;;;;;;7.09;81.79;101982.09;5000262;28;20364;-78
2021/04/20 03:13:01;;;;;;;41.58;28.25;;;;;;;7.06;82.10;101979.63;4999366;28;20535;-78
2021/04/20 03:15:27;;;;;;;45.45;28.65;;;;;;;7.02;82.51;101971.16;4998371;28;20042;-78
2021/04/20 03:17:52;;;;;;;42.25;28.02;;;;;;;6.98;82.72;101969.59;5002280;28;20064;-78
2021/04/20 03:20:19;;;;;;;42.92;28.75;;;;;;;6.94;82.60;101976.66;5003651;28;20047;-78
2021/04/20 03:22:46;;;;;;;39.75;27.23;;;;;;;6.92;82.91;101975.91;5002911;28;20042;-78
2021/04/20 03:25:24;;;;;;;41.47;28.35;;;;;;;6.89;83.12;101970.03;5003776;28;20041;-78
2021/04/20 03:27:53;;;;;;;41.88;28.58;;;;;;;6.89;82.63;101965.69;5002282;28;20054;-78
2021/04/20 03:30:23;;;;;;;41.88;27.25;;;;;;;6.73;83.04;101941.38;5001847;28;20041;-78
2021/04/20 03:32:57;;;;;;;39.50;26.52;;;;;;;6.78;83.33;101967.91;4998408;28;20444;-78
2021/04/20 03:35:51;;;;;;;38.70;26.58;;;;;;;6.76;82.79;101964.53;5007433;28;20045;-78
2021/04/20 03:38:38;;;;;;;38.78;27.10;;;;;;;6.70;83.03;101962.22;5002429;28;20126;-78
2021/04/20 03:41:11;;;;;;;39.17;27.27;;;;;;;6.63;82.92;101959.03;4981723;28;20480;-77
2021/04/20 03:43:39;;;;;;;39.35;26.45;;;;;;;6.63;82.60;101955.63;4998928;28;20039;-78
2021/04/20 03:46:12;;;;;;;47.30;27.15;;;;;;;6.62;82.91;101964.28;5001102;28;20581;-78
2021/04/20 03:48:46;;;;;;;40.72;27.88;;;;;;;6.51;83.79;101950.97;5001854;28;20072;-78
2021/04/20 03:51:18;;;;;;;42.25;27.42;;;;;;;6.51;83.26;101959.59;5002564;28;20042;-78
2021/04/20 03:53:48;;;;;;;40.03;27.00;;;;;;;6.38;82.74;101934.28;5000647;28;20033;-77
2021/04/20 03:56:14;;;;;;;38.67;26.25;;;;;;;6.43;82.65;101959.06;5001306;28;20085;-78
2021/04/20 03:58:42;;;;;;;40.20;27.27;;;;;;;6.34;83.51;101946.53;5002297;28;20045;-78
2021/04/20 04:01:11;;;;;;;41.72;27.45;;;;;;;6.23;83.32;101941.78;5019222;28;20484;-78
2021/04/20 04:03:37;;;;;;;42.03;27.55;;;;;;;6.23;83.24;101959.91;5004584;28;20036;-78
2021/04/20 04:06:05;;;;;;;37.33;25.70;;;;;;;6.18;83.16;101959.25;4999201;28;20453;-78
2021/04/20 04:08:35;;;;;;;38.78;26.13;;;;;;;6.01;83.62;101949.59;5006320;28;20033;-78
2021/04/20 04:11:03;;;;;;;42.45;27.38;;;;;;;6.03;83.94;101960.72;5001505;28;20130;-78
2021/04/20 04:13:30;;;;;;;46.50;28.52;;;;;;;5.97;83.46;101958.41;5013996;28;20033;-78
2021/04/20 04:15:59;;;;;;;47.97;27.75;;;;;;;5.92;84.00;101944.78;4995783;28;20045;-78
2021/04/20 04:18:28;;;;;;;42.75;29.20;;;;;;;5.86;83.56;101949.34;5004744;28;20459;-78
2021/04/20 04:20:58;;;;;;;45.20;30.98;;;;;;;5.86;83.67;101960.53;4998319;28;20041;-77
2021/04/20 04:23:24;;;;;;;41.75;29.20;;;;;;;5.84;84.40;101962.34;4978077;28;20051;-78
2021/04/20 04:25:56;;;;;;;43.35;29.27;;;;;;;5.75;84.37;101950.63;5002522;28;20087;-77
2021/04/20 04:28:24;;;;;;;41.22;27.38;;;;;;;5.69;83.86;101939.69;5000201;28;20041;-78
2021/04/20 04:30:50;;;;;;;49.15;30.25;;;;;;;5.70;84.10;101954.28;4962707;28;20037;-78
2021/04/20 04:33:17;;;;;;;42.38;28.45;;;;;;;5.61;84.14;101949.50;5002896;28;20566;-78
2021/04/20 04:35:44;;;;;;;47.88;30.17;;;;;;;5.54;84.55;101953.19;5002581;28;20041;-78
2021/04/20 04:38:10;;;;;;;47.17;29.45;;;;;;;5.46;85.15;101951.75;5004235;28;20389;-77
2021/04/20 04:40:37;;;;;;;48.50;29.70;;;;;;;5.47;84.75;101950.84;4987525;28;20110;-77
2021/04/20 04:43:02;;;;;;;45.20;29.05;;;;;;;5.40;84.84;101940.84;5003773;28;20443;-78
2021/04/20 04:45:29;;;;;;;44.00;28.63;;;;;;;5.40;84.96;101949.44;4999553;28;20034;-77
2021/04/20 04:47:56;;;;;;;46.90;29.13;;;;;;;5.40;85.04;101948.59;4986648;28;20034;-78
2021/04/20 04:50:23;;;;;;;43.88;30.52;;;;;;;5.39;85.49;101944.31;5000855;28;20072;-77
2021/04/20 04:52:49;;;;;;;45.28;29.83;;;;;;;5.41;85.66;101950.25;5000584;28;20093;-77
2021/04/20 04:55:16;;;;;;;54.42;32.83;;;;;;;5.49;86.00;101960.28;4997735;28;20034;-77
2021/04/20 04:57:44;;;;;;;45.53;29.98;;;;;;;5.52;85.36;101952.41;4999596;28;20068;-78
2021/04/20 05:00:11;;;;;;;43.22;28.90;;;;;;;5.57;85.20;101955.69;4978752;28;20048;-78
2021/04/20 05:02:39;;;;;;;43.58;29.83;;;;;;;5.55;85.05;101954.88;4985678;28;20725;-78
2021/04/20 05:05:07;;;;;;;47.92;30.25;;;;;;;5.59;84.76;101951.28;4976689;28;20057;-78
2021/04/20 05:07:33;;;;;;;47.35;28.73;;;;;;;5.59;85.41;101946.13;4975745;28;20117;-78
2021/04/20 05:10:01;;;;;;;48.92;28.33;;;;;;;5.73;84.51;101957.56;4995666;28;20038;-77
2021/04/20 05:12:27;;;;;;;43.33;28.42;;;;;;;5.72;84.24;101955.91;4997092;28;20818;-78
2021/04/20 05:14:53;;;;;;;43.20;29.35;;;;;;;5.72;84.36;101957.63;4994526;28;20639;-78
2021/04/20 05:17:23;;;;;;;54.58;33.47;;;;;;;5.69;86.13;101944.84;4997770;28;20392;-77
2021/04/20 05:19:51;;;;;;;44.10;28.40;;;;;;;5.77;84.93;101948.00;5003444;28;20038;-78
2021/04/20 05:22:17;;;;;;;43.88;30.05;;;;;;;5.83;85.19;101957.22;5000691;28;20037;-77
2021/04/20 05:24:42;;;;;;;43.00;28.58;;;;;;;5.84;85.08;101952.00;5001485;28;20465;-77
2021/04/20 05:27:10;;;;;;;44.10;28.90;;;;;;;5.85;85.67;101948.50;4998281;28;20520;-77
2021/04/20 05:29:35;;;;;;;47.88;28.85;;;;;;;5.95;85.29;101955.03;5004031;28;20077;-77
2021/04/20 05:32:01;;;;;;;45.20;30.38;;;;;;;6.00;85.25;101958.25;5001128;28;20381;-77
2021/04/20 05:34:27;;;;;;;44.08;29.52;;;;;;;6.01;84.83;101953.94;4982825;28;20053;-77
2021/04/20 05:36:53;;;;;;;45.25;30.40;;;;;;;6.01;85.63;101944.44;4994214;28;20041;-77
2021/04/20 05:39:19;;;;;;;45.72;29.00;;;;;;;6.14;85.21;101957.72;4999085;28;20042;-77
2021/04/20 05:41:45;;;;;;;40.80;27.92;;;;;;;6.21;84.78;101963.47;4997218;28;20041;-77
2021/04/20 05:44:12;;;;;;;42.50;27.65;;;;;;;6.20;85.33;101960.03;4999888;28;20464;-77
2021/04/20 05:46:43;;;;;;;41.83;29.60;;;;;;;6.27;85.30;101960.59;4999583;28;20488;-77
2021/04/20 05:49:10;;;;;;;42.70;28.30;;;;;;;6.20;84.65;101949.69;4985435;28;20065;-77
2021/04/20 05:51:40;;;;;;;44.10;28.70;;;;;;;6.33;84.82;101957.78;5002494;28;20727;-77
2021/04/20 05:54:05;;;;;;;50.28;28.15;;;;;;;6.48;84.87;101971.81;4997920;28;20392;-77
2021/04/20 05:56:31;;;;;;;43.88;28.35;;;;;;;6.45;84.40;101954.66;4995917;28;20042;-77
2021/04/20 05:58:59;;;;;;;41.80;29.20;;;;;;;6.54;84.43;101953.44;4983538;28;20038;-77
2021/04/20 06:01:27;;;;;;;45.83;28.77;;;;;;;6.66;84.77;101969.28;5000853;28;20065;-77
2021/04/20 06:03:54;;;;;;;42.05;28.60;;;;;;;6.70;84.83;101961.38;4998980;28;20488;-77
2021/04/20 06:06:22;;;;;;;41.42;29.73;;;;;;;6.77;85.20;101963.63;4995169;28;20093;-77
2021/04/20 06:08:50;;;;;;;42.15;28.55;;;;;;;6.84;84.86;101964.22;4995497;28;20033;-77
2021/04/20 06:11:18;;;;;;;39.75;27.08;;;;;;;6.87;84.44;101953.72;4985420;28;20100;-77
2021/04/20 06:13:45;;;;;;;36.97;25.20;;;;;;;7.01;83.11;101966.91;5000060;28;20054;-78
2021/04/20 06:16:11;;;;;;;35.35;24.40;;;;;;;7.05;82.09;101957.25;4973960;28;20041;-77
2021/04/20 06:18:39;;;;;;;37.17;24.88;;;;;;;7.13;82.02;101953.38;5017255;28;20038;-78
2021/04/20 06:21:06;;;;;;;33.75;25.02;;;;;;;7.22;82.22;101955.56;5000211;28;20065;-78
2021/04/20 06:23:33;;;;;;;33.80;23.80;;;;;;;7.26;80.62;101946.72;4999923;28;20045;-78
2021/04/20 06:26:01;;;;;;;33.03;21.48;;;;;;;7.29;80.50;101940.56;4996490;28;20048;-78
2021/04/20 06:28:27;;;;;;;30.45;20.45;;;;;;;7.40;78.54;101945.25;5010426;28;20053;-78
2021/04/20 06:31:02;;;;;;;28.65;20.10;;;;;;;7.40;78.53;101940.91;4990347;28;20045;-77
2021/04/20 06:33:32;;;;;;;33.65;21.80;;;;;;;7.59;78.37;101951.25;4992400;28;20112;-78
2021/04/20 06:36:01;;;;;;;30.27;20.88;;;;;;;7.64;78.18;101949.28;4994234;28;20176;-78
2021/04/20 06:38:28;;;;;;;32.85;21.38;;;;;;;7.70;77.51;101942.94;4997744;28;20030;-78
2021/04/20 06:40:56;;;;;;;27.35;18.60;;;;;;;7.77;75.97;101939.16;5000702;28;20508;-77
2021/04/20 06:43:28;;;;;;;32.17;20.42;;;;;;;7.64;76.96;101907.78;5001425;28;20056;-78
2021/04/20 06:45:54;;;;;;;32.10;19.25;;;;;;;7.98;76.06;101951.09;4997887;28;20117;-78
2021/04/20 06:48:33;;;;;;;30.27;20.15;;;;;;;7.99;75.16;101936.34;4996423;28;20087;-78
2021/04/20 06:51:00;;;;;;;31.13;20.85;;;;;;;8.04;74.84;101936.97;4988621;28;20038;-77
2021/04/20 06:53:33;;;;;;;38.75;21.20;;;;;;;8.17;75.81;101940.63;5000471;28;20045;-77
2021/04/20 06:56:21;;;;;;;31.50;19.53;;;;;;;8.29;74.82;101949.56;4981729;28;20440;-77
2021/04/20 06:59:05;;;;;;;27.50;18.35;;;;;;;8.35;74.76;101947.53;4954458;28;20034;-77
2021/04/20 07:02:05;;;;;;;27.63;18.95;;;;;;;8.32;74.36;101924.28;5000171;28;20042;-77
2021/04/20 07:04:50;;;;;;;29.65;17.23;;;;;;;8.56;73.75;101944.75;5003254;28;20037;-78
2021/04/20 07:07:41;;;;;;;23.05;15.05;;;;;;;8.67;71.82;101948.47;4972254;28;20129;-78
2021/04/20 07:10:32;;;;;;;21.10;15.73;;;;;;;8.64;70.25;101934.81;4995164;28;20039;-77
2021/04/20 07:12:59;;;;;;;20.50;14.27;;;;;;;8.87;71.17;101946.59;5000654;28;20037;-78
2021/04/20 07:15:27;;;;;;;24.63;15.73;;;;;;;8.91;69.16;101950.69;4997416;28;20824;-78
2021/04/20 07:18:25;;;;;;;28.38;15.63;;;;;;;8.99;68.53;101939.00;4962530;28;20046;-78
2021/04/20 07:21:33;;;;;;;24.52;15.52;;;;;;;9.09;65.85;101947.97;4982663;28;20033;-78
2021/04/20 07:24:19;;;;;;;23.70;15.98;;;;;;;9.08;67.66;101935.06;4996276;28;20034;-78
2021/04/20 07:27:22;;;;;;;20.10;13.98;;;;;;;9.31;65.38;101952.00;4999659;28;20110;-78
2021/04/20 07:30:01;;;;;;;17.92;11.48;;;;;;;9.43;63.97;101940.94;5000650;28;20038;-77
2021/04/20 07:32:36;;;;;;;17.88;12.27;;;;;;;9.27;63.50;101908.91;4960527;28;20042;-77
2021/04/20 07:35:32;;;;;;;16.88;11.82;;;;;;;9.57;63.47;101947.97;4996243;28;20062;-78
2021/04/20 07:38:02;;;;;;;14.73;10.77;;;;;;;9.63;62.59;101952.81;4971097;28;20911;-77
2021/04/20 07:40:28;;;;;;;16.83;11.15;;;;;;;9.75;62.48;101943.50;5001636;28;20204;-77
2021/04/20 07:43:07;;;;;;;15.48;10.70;;;;;;;9.79;61.86;101943.22;4975305;28;21055;-77
2021/04/20 07:45:56;;;;;;;16.88;10.20;;;;;;;9.84;61.94;101938.59;4992462;28;20041;-77
2021/04/20 07:48:43;;;;;;;18.95;10.65;;;;;;;9.95;60.19;101945.81;4963554;28;20050;-77
2021/04/20 07:51:18;;;;;;;12.93;9.43;;;;;;;10.00;60.70;101939.41;4994454;28;20139;-77
2021/04/20 07:54:01;;;;;;;15.05;9.48;;;;;;;10.15;61.10;101936.84;4975874;28;20498;-78
2021/04/20 07:56:44;;;;;;;16.35;10.30;;;;;;;10.22;59.43;101940.78;4991260;28;20121;-77
2021/04/20 07:59:22;;;;;;;19.63;10.17;;;;;;;10.34;58.06;101937.47;4971465;28;20039;-77
2021/04/20 08:01:56;;;;;;;17.33;9.40;;;;;;;10.44;58.66;101941.22;4995016;28;20022;-77
2021/04/20 08:04:47;;;;;;;12.55;9.23;;;;;;;10.64;56.61;101952.22;4964769;28;20045;-77
2021/04/20 08:07:23;;;;;;;15.80;9.77;;;;;;;10.66;57.63;101940.75;4997382;28;20045;-77
2021/04/20 08:09:52;;;;;;;13.63;8.95;;;;;;;10.74;57.16;101938.50;4976675;28;20026;-77
2021/04/20 08:12:25;;;;;;;11.88;8.48;;;;;;;10.66;56.40;101919.91;5003869;28;20080;-77
2021/04/20 08:15:12;;;;;;;15.35;9.73;;;;;;;10.85;56.45;101933.50;4973697;28;20053;-77
2021/04/20 08:17:48;;;;;;;16.85;8.13;;;;;;;11.04;55.98;101941.00;4998492;28;20053;-78
2021/04/20 08:20:20;;;;;;;15.63;8.05;;;;;;;11.16;55.00;101934.22;4947196;28;20035;-77
2021/04/20 08:22:49;;;;;;;20.33;8.73;;;;;;;11.24;55.46;101925.91;4996051;28;20050;-77
2021/04/20 08:25:26;;;;;;;15.93;10.00;;;;;;;11.24;54.60;101933.72;4966793;28;20701;-76
2021/04/20 08:28:01;;;;;;;18.50;9.65;;;;;;;11.34;54.42;101921.78;4993263;28;20085;-77
2021/04/20 08:30:34;;;;;;;18.48;9.18;;;;;;;11.45;54.48;101935.78;4972681;28;20038;-78
2021/04/20 08:33:06;;;;;;;16.23;9.25;;;;;;;11.52;54.67;101919.78;4984592;28;20484;-78
2021/04/20 08:35:33;;;;;;;16.50;9.40;;;;;;;11.78;54.60;101931.94;4974635;28;20794;-77
2021/04/20 08:38:06;;;;;;;12.55;8.52;;;;;;;11.82;53.47;101932.63;4982154;28;20722;-78
2021/04/20 08:40:41;;;;;;;17.95;9.65;;;;;;;11.92;54.38;101915.44;4972857;28;20160;-78
2021/04/20 08:43:14;;;;;;;17.70;9.40;;;;;;;12.19;53.12;101926.63;5001839;28;20038;-79
2021/04/20 08:45:48;;;;;;;13.43;8.82;;;;;;;12.30;52.68;101920.69;4958237;28;20042;-78
2021/04/20 08:48:28;;;;;;;12.70;8.45;;;;;;;12.44;52.92;101922.38;4997602;28;20041;-78
2021/04/20 08:51:08;;;;;;;14.85;8.25;;;;;;;12.45;52.21;101914.44;4972766;28;20038;-78
2021/04/20 08:53:58;;;;;;;13.02;8.50;;;;;;;12.64;52.41;101921.84;4992761;28;20037;-78
2021/04/20 08:56:31;;;;;;;18.25;8.70;;;;;;;12.74;51.44;101907.19;5014373;28;20053;-78
2021/04/20 08:59:21;;;;;;;13.23;8.60;;;;;;;12.82;50.32;101907.50;4971931;28;20047;-77
2021/04/20 09:01:56;;;;;;;13.15;8.13;;;;;;;12.91;49.58;101922.50;4964984;28;21157;-76
2021/04/20 09:05:35;;;;;;;15.65;7.82;;;;;;;13.11;51.51;101922.91;4959165;28;20445;-78
2021/04/20 09:08:13;;;;;;;13.70;7.40;;;;;;;13.23;48.51;101920.28;4900120;29;20043;-78
2021/04/20 09:10:41;;;;;;;14.35;7.70;;;;;;;13.28;47.12;101917.31;5004114;28;20057;-78
2021/04/20 09:13:12;;;;;;;10.77;7.57;;;;;;;13.22;47.88;101894.22;4971832;28;20041;-78
2021/04/20 09:15:42;;;;;;;18.27;7.53;;;;;;;13.38;46.76;101922.75;5002859;28;20224;-78
2021/04/20 09:18:15;;;;;;;12.95;6.60;;;;;;;13.41;46.00;101907.66;4968305;28;20137;-75
2021/04/20 09:20:58;;;;;;;13.38;7.38;;;;;;;13.56;45.93;101922.25;4987865;28;20062;-77
2021/04/20 09:23:41;;;;;;;13.48;6.78;;;;;;;13.53;44.32;101919.84;4971530;28;20072;-78
2021/04/20 09:26:23;;;;;;;11.77;6.72;;;;;;;13.66;45.10;101924.19;5000736;28;20072;-77
2021/04/20 09:28:59;;;;;;;13.27;6.65;;;;;;;13.80;42.69;101916.97;4954197;28;20057;-77
2021/04/20 09:31:27;;;;;;;12.55;6.38;;;;;;;13.90;42.74;101922.38;4999308;28;20036;-77
2021/04/20 09:33:54;;;;;;;13.77;6.68;;;;;;;13.79;42.38;101912.69;4973831;28;20050;-77
2021/04/20 09:36:23;;;;;;;15.05;7.13;;;;;;;13.97;44.11;101912.25;5002575;28;20034;-77
2021/04/20 09:38:50;;;;;;;13.57;7.63;;;;;;;14.20;44.09;101917.47;4964678;28;20057;-75
2021/04/20 09:41:35;;;;;;;9.88;6.20;;;;;;;14.32;41.86;101915.69;4991909;28;20113;-77
2021/04/20 09:44:42;;;;;;;14.30;6.50;;;;;;;14.32;41.78;101917.47;4970048;28;22207;-77
2021/04/20 09:47:21;;;;;;;10.00;6.38;;;;;;;14.50;43.12;101919.53;4993154;28;20089;-78
2021/04/20 09:49:58;;;;;;;14.15;6.72;;;;;;;14.67;42.21;101912.16;4972189;28;20037;-78
2021/04/20 09:52:33;;;;;;;13.18;6.07;;;;;;;14.70;41.96;101910.13;4996252;28;20037;-78
2021/04/20 09:55:09;;;;;;;12.82;6.85;;;;;;;14.86;42.13;101894.03;4976321;28;20770;-79
2021/04/20 09:57:39;;;;;;;14.75;6.78;;;;;;;14.84;41.66;101910.84;4995189;28;20867;-78
2021/04/20 10:00:13;;;;;;;11.02;6.18;;;;;;;14.97;40.60;101895.81;4957532;28;20037;-78
2021/04/20 10:02:54;;;;;;;10.00;6.03;;;;;;;15.07;40.14;101894.94;5002241;28;20034;-78
2021/04/20 10:05:46;;;;;;;10.55;5.93;;;;;;;15.24;40.85;101901.47;4956542;28;20038;-78
2021/04/20 10:08:21;;;;;;;13.48;6.47;;;;;;;15.42;41.93;101896.53;4977680;28;20041;-78
2021/04/20 10:11:27;;;;;;;12.02;6.28;;;;;;;15.61;43.31;101898.50;4963906;28;20092;-79
2021/04/20 10:14:19;;;;;;;10.88;5.47;;;;;;;15.83;38.31;101902.84;4996533;28;20029;-79
2021/04/20 10:17:15;;;;;;;12.40;5.60;;;;;;;16.06;37.79;101895.66;4966291;28;20120;-79
2021/04/20 10:19:49;;;;;;;13.80;5.97;;;;;;;16.10;38.78;101897.91;4966648;28;20161;-79
2021/04/20 10:22:24;;;;;;;15.90;5.95;;;;;;;16.20;37.21;101897.97;4994980;28;20101;-78
2021/04/20 10:25:00;;;;;;;13.35;5.88;;;;;;;16.33;36.73;101902.03;4960740;28;20181;-79
2021/04/20 10:27:28;;;;;;;12.40;6.53;;;;;;;16.37;38.76;101894.75;4995751;28;20034;-77
2021/04/20 10:30:03;;;;;;;13.73;7.13;;;;;;;16.39;38.23;101892.81;4991807;28;22287;-76
2021/04/20 10:32:31;;;;;;;19.48;6.32;;;;;;;16.36;38.57;101873.84;4987444;28;20033;-76
2021/04/20 10:34:58;;;;;;;10.23;5.57;;;;;;;16.49;37.15;101891.03;4996527;28;20048;-76
2021/04/20 10:37:37;;;;;;;11.90;5.53;;;;;;;16.76;36.04;101884.41;4978768;28;20046;-76
2021/04/20 10:40:08;;;;;;;8.95;5.78;;;;;;;17.02;39.60;101879.47;4982721;28;20125;-77
2021/04/20 10:42:35;;;;;;;11.82;5.82;;;;;;;17.05;38.91;101880.03;4976752;28;20026;-77
2021/04/20 10:45:01;;;;;;;13.88;6.75;;;;;;;17.05;37.18;101864.25;4990315;28;20046;-77
2021/04/20 10:47:27;;;;;;;16.65;6.05;;;;;;;17.14;36.96;101860.81;4978193;28;20035;-77
2021/04/20 10:49:57;;;;;;;8.90;6.22;;;;;;;17.05;34.99;101866.88;4994565;28;20093;-77
2021/04/20 10:52:28;;;;;;;12.68;5.78;;;;;;;17.07;36.19;101853.59;4980414;28;20038;-77
2021/04/20 10:54:58;;;;;;;19.60;5.60;;;;;;;17.03;36.55;101867.97;4993615;28;20037;-77
2021/04/20 10:57:30;;;;;;;9.07;5.13;;;;;;;17.32;37.48;101863.59;4961951;28;20042;-77
2021/04/20 10:59:57;;;;;;;11.50;5.88;;;;;;;17.57;37.24;101856.91;4984267;28;20073;-77
2021/04/20 11:02:27;;;;;;;11.25;4.80;;;;;;;17.50;33.81;101855.81;4974398;28;20033;-79
2021/04/20 11:04:55;;;;;;;11.15;5.78;;;;;;;17.43;34.02;101858.19;4999370;28;20114;-79
2021/04/20 11:07:32;;;;;;;11.35;4.95;;;;;;;17.58;33.78;101855.13;4966920;28;20033;-80
2021/04/20 11:10:02;;;;;;;7.65;5.53;;;;;;;17.83;33.56;101851.94;4991327;28;20190;-79
2021/04/20 11:12:29;;;;;;;12.07;5.40;;;;;;;18.01;34.24;101863.41;4960666;28;20125;-79
2021/04/20 11:14:56;;;;;;;11.52;5.60;;;;;;;18.12;33.84;101852.69;4996682;28;20065;-80
2021/04/20 11:17:31;;;;;;;8.77;5.30;;;;;;;18.11;33.79;101853.66;4980998;28;20042;-81
2021/04/20 11:20:12;;;;;;;10.02;4.63;;;;;;;18.48;33.10;101852.81;4994752;28;20683;-81
2021/04/20 11:22:51;;;;;;;11.45;4.22;;;;;;;18.72;32.19;101847.06;4991365;28;20572;-80
2021/04/20 11:25:43;;;;;;;8.27;4.32;;;;;;;18.16;32.16;101787.34;4991377;28;20027;-80
2021/04/20 11:28:28;;;;;;;10.15;4.88;;;;;;;18.81;32.86;101835.59;4957532;28;20061;-79
2021/04/20 11:30:57;;;;;;;6.78;3.85;;;;;;;18.71;29.96;101835.69;4996548;28;20491;-80
2021/04/20 11:33:40;;;;;;;9.18;4.35;;;;;;;18.93;31.34;101815.94;4991939;28;20100;-80
2021/04/20 11:36:21;;;;;;;8.10;4.10;;;;;;;19.03;29.49;101826.44;4971685;28;20427;-80
2021/04/20 11:38:50;;;;;;;9.48;5.82;;;;;;;19.23;31.33;101822.69;5001675;28;20065;-78